Time;durP1;ratioP1;P1;durP2;ratioP2;P2;SDS_P1;SDS_P2;PMS_P1;PMS_P2;Temp;Humidity;BMP_temperature;BMP_pressure;BME280_temperature;BME280_humidity;BME280_pressure;Samples;Min_cycle;Max_cycle;Signal;HPM_P1;HPM_P2
2021/11/18 00:01:55;;;;;;;7.80;6.53;;;6.60;99.90;;;;;;4972650;28;20566;-72
2021/11/18 00:04:22;;;;;;;7.10;6.40;;;6.60;99.90;;;;;;4973395;28;20179;-72
2021/11/18 00:06:49;;;;;;;7.37;5.77;;;6.60;99.90;;;;;;4973598;28;20408;-72
2021/11/18 00:09:20;;;;;;;9.23;7.03;;;6.60;99.90;;;;;;4973583;28;20390;-72
2021/11/18 00:11:46;;;;;;;7.50;6.17;;;6.60;99.90;;;;;;4973412;28;20482;-73
2021/11/18 00:14:12;;;;;;;7.33;6.60;;;6.60;99.90;;;;;;4973136;28;20471;-73
2021/11/18 00:16:39;;;;;;;11.53;6.20;;;6.60;99.90;;;;;;4973783;28;20603;-72
2021/11/18 00:19:05;;;;;;;6.13;5.40;;;6.60;99.90;;;;;;4973409;28;20418;-72
2021/11/18 00:21:33;;;;;;;7.07;6.20;;;6.50;99.90;;;;;;4973409;28;20435;-72
2021/11/18 00:24:01;;;;;;;7.33;6.07;;;6.50;99.90;;;;;;4973061;28;20177;-72
2021/11/18 00:26:29;;;;;;;7.50;6.13;;;6.50;99.90;;;;;;4973315;28;20391;-72
2021/11/18 00:28:55;;;;;;;7.13;6.43;;;6.50;99.90;;;;;;4971938;28;20509;-72
2021/11/18 00:31:24;;;;;;;9.87;7.43;;;6.50;99.90;;;;;;4972777;28;20484;-71
2021/11/18 00:33:50;;;;;;;9.90;7.90;;;6.60;99.90;;;;;;4972844;28;20409;-72
2021/11/18 00:36:16;;;;;;;8.83;6.37;;;6.60;99.90;;;;;;4973088;28;20957;-72
2021/11/18 00:38:43;;;;;;;9.13;6.27;;;6.60;99.90;;;;;;4973202;28;20426;-72
2021/11/18 00:41:10;;;;;;;16.23;7.60;;;6.60;99.90;;;;;;4972838;28;20188;-72
2021/11/18 00:43:35;;;;;;;7.80;6.60;;;6.60;99.90;;;;;;4972834;28;20414;-72
2021/11/18 00:46:01;;;;;;;10.83;6.77;;;6.50;99.90;;;;;;4972747;28;20422;-72
2021/11/18 00:48:28;;;;;;;6.80;6.10;;;6.50;99.90;;;;;;4972834;28;20191;-73
2021/11/18 00:51:00;;;;;;;9.53;6.60;;;6.50;99.90;;;;;;4972822;28;20170;-72
2021/11/18 00:53:25;;;;;;;5.97;5.27;;;6.50;99.90;;;;;;4972575;28;20434;-72
2021/11/18 00:55:51;;;;;;;10.40;5.67;;;6.50;99.90;;;;;;4972910;28;20977;-73
2021/11/18 00:58:18;;;;;;;8.17;6.47;;;6.50;99.90;;;;;;4972596;28;20969;-72
2021/11/18 05:32:35;;;;;;;9.27;6.73;;;6.60;99.90;;;;;;5173025;23;20936;-72
2021/11/18 05:35:01;;;;;;;9.50;7.43;;;6.60;99.90;;;;;;4968413;28;20460;-71
2021/11/18 05:37:27;;;;;;;8.37;7.23;;;6.60;99.90;;;;;;4972568;28;20180;-74
2021/11/18 05:39:53;;;;;;;9.90;7.53;;;6.60;99.90;;;;;;4972440;28;20172;-74
2021/11/18 05:42:19;;;;;;;7.50;6.60;;;6.60;99.90;;;;;;4972129;28;20215;-74
2021/11/18 05:44:48;;;;;;;9.43;7.93;;;6.60;99.90;;;;;;4972271;28;20413;-74
2021/11/18 05:47:15;;;;;;;11.43;7.67;;;6.60;99.90;;;;;;4972312;28;20411;-74
2021/11/18 05:49:40;;;;;;;11.67;8.33;;;6.60;99.90;;;;;;4972361;28;20412;-74
2021/11/18 05:52:06;;;;;;;12.53;9.17;;;6.60;99.90;;;;;;4972150;28;20466;-74
2021/11/18 05:54:31;;;;;;;10.27;8.27;;;6.60;99.90;;;;;;4971986;28;20720;-74
2021/11/18 05:56:57;;;;;;;10.53;8.17;;;6.60;99.90;;;;;;4972440;28;20187;-74
2021/11/18 05:59:22;;;;;;;11.33;8.00;;;6.60;99.90;;;;;;4973842;28;20203;-74
2021/11/18 06:01:48;;;;;;;8.90;7.53;;;6.60;99.90;;;;;;4975725;28;20682;-74
2021/11/18 06:04:14;;;;;;;9.13;7.90;;;6.60;99.90;;;;;;4975500;28;20662;-74
2021/11/18 06:06:40;;;;;;;9.37;7.50;;;6.60;99.90;;;;;;4975972;28;20178;-75
2021/11/18 06:09:06;;;;;;;9.07;7.50;;;6.60;99.90;;;;;;4975556;28;20171;-74
2021/11/18 06:11:36;;;;;;;13.60;7.83;;;6.60;99.90;;;;;;4975737;28;20486;-74
2021/11/18 06:14:03;;;;;;;7.33;6.60;;;6.70;99.90;;;;;;4975251;28;20416;-72
2021/11/18 06:16:29;;;;;;;13.40;7.50;;;6.60;99.90;;;;;;4974536;28;20507;-74
2021/11/18 06:18:58;;;;;;;9.77;7.43;;;6.60;99.90;;;;;;4975339;28;20667;-74
2021/11/18 06:21:25;;;;;;;14.77;7.07;;;6.70;99.90;;;;;;4973376;28;20677;-74
2021/11/18 06:23:51;;;;;;;13.97;8.00;;;6.70;99.90;;;;;;4974965;28;20418;-74
2021/11/18 06:26:18;;;;;;;7.23;6.37;;;6.60;99.90;;;;;;4975066;28;20419;-72
2021/11/18 06:28:44;;;;;;;13.20;7.83;;;6.60;99.90;;;;;;4975368;28;20416;-73
2021/11/18 06:31:13;;;;;;;9.83;6.87;;;6.60;99.90;;;;;;4974145;28;20845;-72
2021/11/18 06:33:40;;;;;;;10.37;7.87;;;6.60;99.90;;;;;;4975522;28;20574;-72
2021/11/18 06:36:06;;;;;;;7.50;6.73;;;6.60;99.90;;;;;;4975781;28;20419;-68
2021/11/18 06:38:32;;;;;;;9.50;7.33;;;6.70;99.90;;;;;;4975517;28;20484;-72
2021/11/18 06:40:58;;;;;;;12.73;8.20;;;6.70;99.90;;;;;;4975754;28;20439;-69
2021/11/18 06:43:25;;;;;;;11.17;7.37;;;6.80;99.90;;;;;;4975054;28;20823;-71
2021/11/18 06:45:50;;;;;;;11.60;8.00;;;6.80;99.90;;;;;;4975712;28;20418;-72
2021/11/18 06:48:20;;;;;;;8.43;7.10;;;6.80;99.90;;;;;;4975416;28;20189;-70
2021/11/18 06:50:46;;;;;;;10.57;8.47;;;6.80;99.90;;;;;;4975564;28;20208;-71
2021/11/18 06:53:13;;;;;;;11.60;8.20;;;6.80;99.90;;;;;;4975714;28;20491;-70
2021/11/18 06:55:39;;;;;;;11.20;7.60;;;6.80;99.90;;;;;;4975750;28;20180;-72
2021/11/18 06:58:05;;;;;;;10.67;8.23;;;6.80;99.90;;;;;;4975416;28;20964;-70
2021/11/18 07:00:30;;;;;;;11.27;7.57;;;6.80;99.90;;;;;;4975710;28;20420;-70
2021/11/18 07:02:56;;;;;;;10.23;8.20;;;6.80;99.90;;;;;;4975165;28;20786;-71
2021/11/18 07:05:22;;;;;;;10.83;7.93;;;6.90;99.90;;;;;;4975395;28;20185;-72
2021/11/18 07:07:48;;;;;;;12.03;8.53;;;6.90;99.90;;;;;;4975273;28;20187;-70
2021/11/18 07:10:14;;;;;;;17.50;8.10;;;6.90;99.90;;;;;;4975059;28;20419;-71
2021/11/18 07:12:40;;;;;;;13.37;8.43;;;6.80;99.90;;;;;;4975185;28;20217;-71
2021/11/18 07:15:10;;;;;;;8.67;7.37;;;6.90;99.90;;;;;;4975358;28;20421;-69
2021/11/18 07:17:36;;;;;;;26.23;8.33;;;6.90;99.90;;;;;;4975608;28;20175;-71
2021/11/18 07:20:03;;;;;;;10.83;7.40;;;6.90;99.90;;;;;;4975672;28;20420;-72
2021/11/18 07:22:30;;;;;;;10.80;8.07;;;6.90;99.90;;;;;;4974983;28;20506;-71
2021/11/18 07:24:56;;;;;;;14.90;7.50;;;6.90;99.90;;;;;;4975395;28;20420;-72
2021/11/18 07:27:22;;;;;;;13.77;8.03;;;6.90;99.90;;;;;;4975396;28;20419;-72
2021/11/18 07:29:48;;;;;;;12.13;8.00;;;7.00;99.90;;;;;;4975355;28;20430;-72
2021/11/18 07:32:13;;;;;;;10.33;8.10;;;7.10;99.90;;;;;;4974663;28;20707;-72
2021/11/18 07:34:39;;;;;;;10.80;7.30;;;7.00;99.90;;;;;;4974944;28;20188;-71
2021/11/18 07:37:04;;;;;;;13.97;8.50;;;7.10;99.90;;;;;;4975200;28;20263;-71
2021/11/18 07:39:30;;;;;;;12.50;7.97;;;7.10;99.90;;;;;;4973712;28;20193;-71
2021/11/18 07:41:56;;;;;;;12.30;9.17;;;7.10;99.90;;;;;;4975049;28;20204;-71
2021/11/18 07:44:22;;;;;;;14.63;9.20;;;7.10;99.90;;;;;;4974768;28;20190;-72
2021/11/18 07:46:48;;;;;;;15.90;8.50;;;7.20;99.90;;;;;;4975103;28;20236;-72
2021/11/18 07:49:14;;;;;;;17.07;9.90;;;7.20;99.90;;;;;;4974559;28;20417;-71
2021/11/18 07:51:41;;;;;;;9.20;7.40;;;7.30;99.90;;;;;;4974706;28;20476;-71
2021/11/18 07:54:09;;;;;;;12.90;8.17;;;7.30;99.90;;;;;;4974272;28;20426;-71
2021/11/18 07:56:37;;;;;;;17.40;8.70;;;7.20;99.90;;;;;;4974841;28;20787;-71
2021/11/18 07:59:03;;;;;;;11.90;8.47;;;7.30;99.90;;;;;;4974707;28;20483;-71
2021/11/18 08:01:29;;;;;;;10.53;8.20;;;7.30;99.90;;;;;;4974537;28;20436;-72
2021/11/18 08:03:54;;;;;;;17.17;8.47;;;7.30;99.90;;;;;;4970103;28;20421;-70
2021/11/18 08:06:26;;;;;;;12.70;8.83;;;7.40;99.90;;;;;;4972509;28;20188;-71
2021/11/18 08:08:54;;;;;;;12.47;8.70;;;7.40;99.90;;;;;;4963479;28;20185;-71
2021/11/18 08:11:35;;;;;;;18.50;9.90;;;7.40;99.90;;;;;;4973366;28;20426;-71
2021/11/18 08:14:03;;;;;;;19.53;11.20;;;7.40;99.90;;;;;;4973287;28;20792;-71
2021/11/18 08:16:29;;;;;;;14.03;9.60;;;7.30;99.90;;;;;;4973673;28;20428;-72
2021/11/18 08:18:55;;;;;;;16.27;9.00;;;7.30;99.90;;;;;;4973644;28;20918;-71
2021/11/18 08:21:23;;;;;;;17.87;10.37;;;7.40;99.90;;;;;;4973369;28;20711;-71
2021/11/18 08:23:49;;;;;;;16.40;9.50;;;7.30;99.90;;;;;;4972196;28;20409;-71
2021/11/18 08:26:18;;;;;;;17.53;9.10;;;7.40;99.90;;;;;;4973275;28;20420;-72
2021/11/18 08:28:44;;;;;;;21.80;10.03;;;7.40;99.90;;;;;;4973899;28;20422;-71
2021/11/18 08:31:12;;;;;;;14.73;8.93;;;7.40;99.90;;;;;;4973598;28;20500;-71
2021/11/18 08:33:38;;;;;;;16.10;9.60;;;7.40;99.90;;;;;;4973064;28;20478;-71
2021/11/18 08:36:04;;;;;;;19.40;10.63;;;7.40;99.90;;;;;;4971386;28;20835;-70
2021/11/18 08:38:30;;;;;;;14.47;8.50;;;7.30;99.90;;;;;;4968645;28;20439;-71
2021/11/18 08:41:00;;;;;;;16.37;9.13;;;7.40;99.90;;;;;;4973353;28;20196;-70
2021/11/18 08:43:26;;;;;;;22.10;10.30;;;7.40;99.90;;;;;;4971452;28;20191;-71
2021/11/18 08:45:52;;;;;;;18.97;10.50;;;7.40;99.90;;;;;;4973731;28;20797;-72
2021/11/18 08:48:19;;;;;;;19.77;9.80;;;7.40;99.90;;;;;;4974922;28;20429;-70
2021/11/18 08:50:49;;;;;;;19.77;10.83;;;7.50;99.90;;;;;;4973039;28;20434;-70
2021/11/18 08:53:15;;;;;;;19.03;10.47;;;7.60;99.90;;;;;;4972952;28;20462;-71
2021/11/18 08:55:42;;;;;;;16.93;9.70;;;7.70;99.90;;;;;;4973611;28;20414;-70
2021/11/18 08:58:10;;;;;;;17.47;10.50;;;7.80;99.90;;;;;;4973039;28;20424;-70
2021/11/18 09:00:44;;;;;;;18.03;10.13;;;7.90;99.90;;;;;;4972714;28;20964;-70
2021/11/18 09:03:10;;;;;;;19.50;9.80;;;7.90;99.90;;;;;;4972499;28;20830;-70
2021/11/18 09:05:35;;;;;;;19.23;10.70;;;7.90;99.90;;;;;;4971506;28;20428;-69
2021/11/18 09:08:03;;;;;;;15.17;9.30;;;8.00;99.90;;;;;;4972587;28;20186;-70
2021/11/18 09:10:30;;;;;;;16.10;10.30;;;8.00;99.90;;;;;;4972639;28;20193;-69
2021/11/18 09:12:56;;;;;;;18.93;11.33;;;8.00;99.90;;;;;;4972428;28;20472;-70
2021/11/18 09:15:24;;;;;;;22.83;11.63;;;8.00;99.90;;;;;;4972580;28;20429;-69
2021/11/18 09:17:50;;;;;;;16.80;9.90;;;8.00;99.90;;;;;;4975527;28;20416;-71
2021/11/18 09:20:18;;;;;;;16.53;11.00;;;8.00;99.90;;;;;;4974406;28;20430;-70
2021/11/18 09:22:45;;;;;;;19.60;11.03;;;8.00;99.90;;;;;;4972162;28;20866;-70
2021/11/18 09:25:13;;;;;;;17.73;11.07;;;8.00;99.90;;;;;;4972642;28;20467;-70
2021/11/18 09:27:48;;;;;;;18.90;10.47;;;8.10;99.90;;;;;;4971146;28;20430;-70
2021/11/18 09:30:27;;;;;;;17.73;11.40;;;8.10;99.90;;;;;;4972519;28;20425;-70
2021/11/18 09:32:55;;;;;;;22.23;11.30;;;8.10;99.90;;;;;;4972438;28;20482;-71
2021/11/18 09:35:25;;;;;;;20.37;10.03;;;8.10;99.90;;;;;;4975234;28;21090;-69
2021/11/18 09:37:51;;;;;;;21.93;11.47;;;8.20;99.90;;;;;;4976237;28;20839;-70
2021/11/18 09:40:21;;;;;;;15.63;10.63;;;8.10;99.90;;;;;;4976289;28;20418;-70
2021/11/18 09:43:23;;;;;;;19.43;10.13;;;8.10;99.90;;;;;;4976144;28;20214;-70
2021/11/18 09:46:19;;;;;;;15.03;10.70;;;8.10;99.90;;;;;;4976585;28;20476;-71
2021/11/18 09:48:50;;;;;;;17.17;9.70;;;8.20;99.90;;;;;;4976141;28;20475;-70
2021/11/18 09:51:40;;;;;;;15.40;10.57;;;8.10;99.90;;;;;;4976124;28;20452;-70
2021/11/18 09:54:43;;;;;;;18.27;11.73;;;8.20;99.90;;;;;;4975684;28;20486;-70
2021/11/18 09:57:34;;;;;;;20.53;12.10;;;8.20;99.90;;;;;;4976083;28;20411;-70
2021/11/18 10:00:21;;;;;;;19.40;11.73;;;8.20;99.90;;;;;;4976096;28;20399;-70
2021/11/18 10:02:59;;;;;;;21.77;12.97;;;8.40;99.90;;;;;;4975695;28;20441;-69
2021/11/18 10:05:28;;;;;;;22.67;12.27;;;8.50;99.90;;;;;;4975860;28;20419;-70
2021/11/18 10:08:00;;;;;;;17.80;12.57;;;8.60;99.90;;;;;;4975645;28;20414;-70
2021/11/18 10:10:28;;;;;;;23.70;12.87;;;9.00;99.90;;;;;;4975911;28;20764;-70
2021/11/18 10:13:22;;;;;;;23.27;12.70;;;9.30;99.90;;;;;;4975427;28;20876;-70
2021/11/18 10:16:00;;;;;;;23.77;12.80;;;9.60;99.90;;;;;;4976131;28;20491;-70
2021/11/18 10:18:30;;;;;;;21.20;12.93;;;9.60;99.90;;;;;;4974065;28;20776;-71
2021/11/18 10:21:17;;;;;;;17.47;12.33;;;9.70;99.90;;;;;;4975841;28;20432;-70
2021/11/18 10:23:45;;;;;;;22.90;14.10;;;9.70;99.90;;;;;;4975504;28;20561;-70
2021/11/18 10:26:22;;;;;;;26.50;15.63;;;9.80;99.90;;;;;;4975763;28;20422;-70
2021/11/18 10:29:21;;;;;;;21.00;13.90;;;9.80;99.90;;;;;;4975379;28;20418;-69
2021/11/18 10:32:04;;;;;;;24.33;13.50;;;10.20;99.90;;;;;;4975302;28;20466;-69
2021/11/18 10:34:56;;;;;;;22.30;13.10;;;10.40;99.90;;;;;;4975011;28;20417;-69
2021/11/18 10:37:26;;;;;;;18.60;13.40;;;10.60;99.90;;;;;;4975262;28;20424;-69
2021/11/18 10:40:06;;;;;;;26.93;13.67;;;10.60;99.90;;;;;;4975205;28;20406;-69
2021/11/18 10:42:40;;;;;;;27.23;13.67;;;10.60;99.90;;;;;;4975208;28;20437;-70
2021/11/18 10:45:26;;;;;;;20.90;13.47;;;10.60;99.90;;;;;;4974121;28;20781;-71
2021/11/18 10:47:57;;;;;;;17.83;12.70;;;10.70;99.90;;;;;;4975192;28;20454;-69
2021/11/18 10:50:44;;;;;;;22.70;13.47;;;10.60;99.90;;;;;;4975087;28;20822;-72
2021/11/18 10:53:28;;;;;;;17.97;12.90;;;10.60;99.90;;;;;;4974670;28;20488;-69
2021/11/18 10:55:59;;;;;;;24.23;11.93;;;10.40;99.90;;;;;;4975057;28;20445;-70
2021/11/18 10:58:25;;;;;;;23.00;12.57;;;10.30;99.90;;;;;;4974805;28;20409;-70
2021/11/18 11:01:28;;;;;;;21.23;12.43;;;10.20;99.90;;;;;;4975007;28;20842;-70
2021/11/18 11:03:57;;;;;;;16.77;10.70;;;10.20;99.90;;;;;;4974739;28;20529;-70
2021/11/18 11:06:45;;;;;;;19.70;11.60;;;10.20;99.90;;;;;;4974801;28;20430;-70
2021/11/18 11:09:17;;;;;;;20.33;11.60;;;10.30;99.90;;;;;;4973939;28;20449;-69
2021/11/18 11:12:03;;;;;;;20.50;11.57;;;10.20;99.90;;;;;;4974792;28;20433;-70
2021/11/18 11:15:01;;;;;;;21.80;12.57;;;10.30;99.90;;;;;;4973154;28;20778;-70
2021/11/18 11:18:11;;;;;;;16.00;11.73;;;10.30;99.90;;;;;;4974505;28;20405;-70
2021/11/18 11:21:28;;;;;;;14.03;10.27;;;10.20;99.90;;;;;;4952334;28;20435;-71
2021/11/18 11:24:30;;;;;;;22.00;11.90;;;10.10;99.90;;;;;;4973195;28;20986;-70
2021/11/18 11:27:17;;;;;;;15.53;11.80;;;10.00;99.90;;;;;;4974757;28;20407;-70
2021/11/18 11:30:13;;;;;;;18.57;11.87;;;9.90;99.90;;;;;;4974361;28;20415;-70
2021/11/18 11:32:47;;;;;;;23.77;12.20;;;9.90;99.90;;;;;;4974192;28;20529;-71
2021/11/18 11:35:24;;;;;;;15.17;10.40;;;9.90;99.90;;;;;;4974411;28;20481;-71
2021/11/18 11:37:56;;;;;;;18.53;11.57;;;10.00;99.90;;;;;;4973193;28;20421;-71
2021/11/18 11:40:30;;;;;;;16.83;11.33;;;10.00;99.90;;;;;;4975414;28;20425;-71
2021/11/18 11:43:10;;;;;;;25.17;11.23;;;10.10;99.90;;;;;;4974136;28;20444;-71
2021/11/18 11:45:46;;;;;;;17.00;10.70;;;10.00;99.90;;;;;;4974406;28;20448;-71
2021/11/18 11:48:49;;;;;;;13.93;9.63;;;10.10;99.90;;;;;;4974050;28;20474;-70
2021/11/18 11:51:29;;;;;;;15.70;9.70;;;10.10;99.90;;;;;;4972997;28;20434;-72
2021/11/18 11:54:23;;;;;;;13.47;9.90;;;10.00;99.90;;;;;;4974179;28;20428;-72
2021/11/18 11:56:53;;;;;;;14.00;8.93;;;10.00;99.90;;;;;;4974788;28;20536;-71
2021/11/18 11:59:36;;;;;;;16.57;9.80;;;10.10;99.90;;;;;;4974504;28;20480;-69
2021/11/18 12:02:31;;;;;;;14.03;9.33;;;10.10;99.90;;;;;;4974686;28;20461;-71
2021/11/18 12:05:02;;;;;;;14.33;8.33;;;10.20;99.90;;;;;;4974589;28;20914;-71
2021/11/18 12:07:57;;;;;;;12.20;8.67;;;10.20;99.90;;;;;;4974449;28;20814;-70
2021/11/18 12:10:30;;;;;;;13.00;8.00;;;10.20;99.90;;;;;;4974569;28;20837;-71
2021/11/18 12:13:07;;;;;;;17.03;9.53;;;10.20;99.90;;;;;;4974038;28;20464;-71
2021/11/18 12:15:46;;;;;;;11.80;8.80;;;10.20;99.90;;;;;;4974529;28;20430;-72
2021/11/18 12:18:23;;;;;;;14.00;9.50;;;10.10;99.90;;;;;;4974050;28;20409;-71
2021/11/18 12:20:49;;;;;;;14.10;8.33;;;10.10;99.90;;;;;;4972945;28;20452;-71
2021/11/18 12:23:18;;;;;;;15.33;9.67;;;10.00;99.90;;;;;;4973645;28;20469;-71
2021/11/18 12:26:04;;;;;;;15.33;8.27;;;10.00;99.90;;;;;;4973999;28;20173;-72
2021/11/18 12:28:35;;;;;;;18.80;9.97;;;10.10;99.90;;;;;;4971133;28;20421;-70
2021/11/18 12:31:07;;;;;;;15.93;10.77;;;10.20;99.90;;;;;;4972772;28;20515;-71
2021/11/18 12:33:35;;;;;;;17.17;10.63;;;10.30;99.90;;;;;;4972445;28;20491;-70
2021/11/18 12:36:21;;;;;;;19.60;11.13;;;10.30;99.90;;;;;;4973186;28;20488;-70
2021/11/18 12:39:34;;;;;;;15.00;10.00;;;10.30;99.90;;;;;;4973362;28;20935;-70
2021/11/18 12:42:33;;;;;;;14.77;10.93;;;10.30;99.90;;;;;;4972552;28;20817;-70
2021/11/18 12:45:05;;;;;;;14.87;9.60;;;10.30;99.90;;;;;;4972999;28;20426;-70
2021/11/18 12:47:49;;;;;;;13.60;10.40;;;10.20;99.90;;;;;;4973008;28;20906;-70
2021/11/18 12:50:31;;;;;;;18.70;11.87;;;10.20;99.90;;;;;;4972979;28;20414;-71
2021/11/18 12:53:11;;;;;;;14.20;10.90;;;10.10;99.90;;;;;;4972537;28;20440;-72
2021/11/18 12:56:13;;;;;;;23.30;11.23;;;10.10;99.90;;;;;;4973036;28;20416;-70
2021/11/18 12:58:50;;;;;;;23.63;12.50;;;10.00;99.90;;;;;;4972743;28;20474;-71
2021/11/18 13:01:21;;;;;;;17.57;11.13;;;10.00;99.90;;;;;;4972914;28;20434;-70
2021/11/18 13:03:48;;;;;;;18.03;12.70;;;9.90;99.90;;;;;;4972156;28;20410;-71
2021/11/18 13:06:28;;;;;;;17.80;11.67;;;9.90;99.90;;;;;;4972867;28;20425;-70
2021/11/18 13:09:04;;;;;;;17.83;11.00;;;9.70;99.90;;;;;;4971136;28;20414;-70
2021/11/18 13:11:29;;;;;;;15.90;10.00;;;9.70;99.90;;;;;;4971406;28;20442;-71
2021/11/18 13:14:10;;;;;;;15.03;10.90;;;9.60;99.90;;;;;;4972160;28;20417;-71
2021/11/18 13:16:47;;;;;;;15.37;9.90;;;9.60;99.90;;;;;;4972876;28;20274;-71
2021/11/18 13:19:15;;;;;;;14.77;9.90;;;9.50;99.90;;;;;;4972646;28;20491;-70
2021/11/18 13:22:00;;;;;;;13.10;9.23;;;9.40;99.90;;;;;;4972870;28;20930;-70
2021/11/18 13:24:53;;;;;;;13.87;9.07;;;9.40;99.90;;;;;;4971991;28;20393;-70
2021/11/18 13:27:26;;;;;;;12.40;8.23;;;9.30;99.90;;;;;;4972494;28;20746;-70
2021/11/18 13:29:55;;;;;;;15.23;8.90;;;9.20;99.90;;;;;;4972627;28;20425;-70
2021/11/18 13:32:24;;;;;;;15.10;9.20;;;9.10;99.90;;;;;;4972080;28;20509;-70
2021/11/18 13:35:09;;;;;;;9.80;7.60;;;9.10;99.90;;;;;;4972525;28;20494;-70
2021/11/18 13:37:39;;;;;;;10.60;8.40;;;9.10;99.90;;;;;;4972362;28;20761;-71
2021/11/18 13:40:26;;;;;;;11.97;7.93;;;9.10;99.90;;;;;;4972548;28;20446;-70
2021/11/18 13:43:06;;;;;;;12.50;8.13;;;9.10;99.90;;;;;;4969509;28;20444;-71
2021/11/18 13:46:01;;;;;;;9.90;7.70;;;9.10;99.90;;;;;;4955655;28;20428;-70
2021/11/18 13:48:46;;;;;;;8.30;6.73;;;9.00;99.90;;;;;;4972167;28;20449;-70
2021/11/18 13:51:14;;;;;;;7.10;5.90;;;9.10;99.90;;;;;;4972667;28;20442;-70
2021/11/18 13:53:55;;;;;;;10.85;7.90;;;9.10;99.90;;;;;;4970764;28;20430;-70
2021/11/18 13:56:41;;;;;;;11.60;6.93;;;9.10;99.90;;;;;;4972405;28;20186;-70
2021/11/18 13:59:25;;;;;;;12.77;6.77;;;9.00;99.90;;;;;;4973442;28;20454;-71
2021/11/18 14:02:15;;;;;;;9.50;6.50;;;9.00;99.90;;;;;;4971253;28;20455;-70
2021/11/18 14:04:53;;;;;;;8.70;6.30;;;9.00;99.90;;;;;;4970590;28;20847;-71
2021/11/18 14:07:19;;;;;;;10.43;5.93;;;9.00;99.90;;;;;;4972412;28;20419;-71
2021/11/18 14:09:49;;;;;;;7.37;5.57;;;9.00;99.90;;;;;;4973520;28;20410;-71
2021/11/18 14:12:37;;;;;;;7.43;6.23;;;9.00;99.90;;;;;;4971906;28;20484;-70
2021/11/18 14:15:24;;;;;;;7.40;5.87;;;9.00;99.90;;;;;;4972092;28;20414;-70
2021/11/18 14:18:17;;;;;;;8.57;5.93;;;9.00;99.90;;;;;;4960354;28;20835;-71
2021/11/18 14:20:52;;;;;;;7.63;5.93;;;9.00;99.90;;;;;;4968632;28;20470;-72
2021/11/18 14:23:33;;;;;;;11.97;6.80;;;9.00;99.90;;;;;;4974378;28;20520;-72
2021/11/18 14:26:17;;;;;;;11.80;5.50;;;9.00;99.90;;;;;;4975096;28;21022;-71
2021/11/18 14:28:47;;;;;;;12.80;5.77;;;9.00;99.90;;;;;;4965395;28;20439;-71
2021/11/18 14:31:31;;;;;;;6.80;6.10;;;8.90;99.90;;;;;;4973573;28;20541;-71
2021/11/18 14:34:04;;;;;;;8.10;5.10;;;8.80;99.90;;;;;;4974382;28;20539;-71
2021/11/18 14:36:36;;;;;;;5.97;5.37;;;8.80;99.90;;;;;;4973844;28;20455;-70
2021/11/18 14:39:20;;;;;;;7.53;5.37;;;8.80;99.90;;;;;;4974433;28;20453;-70
2021/11/18 14:42:15;;;;;;;5.93;5.33;;;8.80;99.90;;;;;;4973425;28;20851;-71
2021/11/18 14:45:02;;;;;;;6.97;5.77;;;8.80;99.90;;;;;;4938610;28;20429;-70
2021/11/18 14:47:37;;;;;;;7.20;5.57;;;8.80;99.90;;;;;;4973073;28;20439;-70
2021/11/18 14:50:26;;;;;;;8.23;6.50;;;8.80;99.90;;;;;;4975104;28;20926;-70
2021/11/18 14:52:56;;;;;;;6.10;5.50;;;8.70;99.90;;;;;;4971558;28;20226;-70
2021/11/18 14:55:32;;;;;;;7.40;6.00;;;8.60;99.90;;;;;;4974890;28;20415;-70
2021/11/18 14:58:14;;;;;;;9.67;7.13;;;8.60;99.90;;;;;;4974919;28;20508;-70
2021/11/18 15:00:59;;;;;;;6.80;5.80;;;8.60;99.90;;;;;;4974778;28;20499;-71
2021/11/18 15:03:29;;;;;;;8.73;4.93;;;8.60;99.90;;;;;;4974514;28;20450;-69
2021/11/18 15:05:56;;;;;;;6.07;5.43;;;8.50;99.90;;;;;;4973690;28;20433;-70
2021/11/18 15:08:24;;;;;;;5.33;4.80;;;8.50;99.90;;;;;;4974792;28;20425;-70
2021/11/18 15:10:52;;;;;;;4.80;4.30;;;8.40;99.90;;;;;;4974808;28;20433;-71
2021/11/18 15:13:19;;;;;;;7.80;6.27;;;8.40;99.90;;;;;;4974005;28;20472;-70
2021/11/18 15:15:44;;;;;;;8.20;5.53;;;8.40;99.90;;;;;;4974771;28;20417;-70
2021/11/18 15:18:12;;;;;;;10.43;6.10;;;8.40;99.90;;;;;;4973275;28;20788;-70
2021/11/18 15:20:42;;;;;;;8.50;4.73;;;8.40;99.90;;;;;;4973546;28;20667;-71
2021/11/18 15:23:09;;;;;;;5.77;5.17;;;8.30;99.90;;;;;;4973943;28;20556;-70
2021/11/18 15:25:36;;;;;;;5.33;4.60;;;8.30;99.90;;;;;;4974700;28;20393;-70
2021/11/18 15:28:03;;;;;;;6.97;5.40;;;8.20;99.90;;;;;;4974445;28;20930;-70
2021/11/18 15:30:42;;;;;;;11.00;5.13;;;8.20;99.90;;;;;;4974075;28;20421;-70
2021/11/18 15:33:09;;;;;;;6.87;5.30;;;8.10;99.90;;;;;;4972680;28;20523;-71
2021/11/18 15:35:35;;;;;;;7.77;5.33;;;8.10;99.90;;;;;;4974392;28;20433;-70
2021/11/18 15:38:04;;;;;;;8.73;5.60;;;8.00;99.90;;;;;;4973113;28;20990;-70
2021/11/18 15:40:32;;;;;;;7.50;5.50;;;8.00;99.90;;;;;;4974141;28;20388;-70
2021/11/18 15:42:58;;;;;;;8.67;5.10;;;7.90;99.90;;;;;;4973961;28;20473;-70
2021/11/18 15:45:26;;;;;;;7.87;4.70;;;7.90;99.90;;;;;;4973997;28;20419;-70
2021/11/18 15:47:52;;;;;;;11.70;5.23;;;7.80;99.90;;;;;;4974202;28;20426;-71
2021/11/18 15:50:21;;;;;;;8.47;5.60;;;7.60;99.90;;;;;;4973894;28;20417;-70
2021/11/18 15:52:48;;;;;;;8.23;5.20;;;7.60;99.90;;;;;;4969300;28;20880;-70
2021/11/18 15:55:15;;;;;;;9.87;6.40;;;7.50;99.90;;;;;;4962713;28;20457;-70
2021/11/18 15:57:42;;;;;;;7.37;5.63;;;7.50;99.90;;;;;;4973457;28;20929;-72
2021/11/18 16:00:13;;;;;;;5.97;5.33;;;7.40;99.90;;;;;;4973361;28;20446;-69
2021/11/18 16:02:39;;;;;;;8.80;6.20;;;7.30;99.90;;;;;;4972924;28;20465;-72
2021/11/18 16:05:05;;;;;;;16.13;6.20;;;7.20;99.90;;;;;;4972894;28;20452;-72
2021/11/18 16:07:31;;;;;;;6.83;5.37;;;7.10;99.90;;;;;;4982114;28;20527;-73
2021/11/18 16:09:57;;;;;;;6.87;5.03;;;7.00;99.90;;;;;;4972145;28;20460;-73
2021/11/18 16:12:30;;;;;;;10.53;6.37;;;6.90;99.90;;;;;;4970163;28;20235;-73
2021/11/18 16:15:03;;;;;;;9.43;6.80;;;6.80;99.90;;;;;;4967431;28;20532;-72
2021/11/18 16:17:35;;;;;;;13.57;6.43;;;6.70;99.90;;;;;;4969547;28;20465;-73
2021/11/18 16:20:01;;;;;;;7.93;6.00;;;6.60;99.90;;;;;;4972974;28;20455;-73
2021/11/18 16:22:31;;;;;;;9.13;6.73;;;6.50;99.90;;;;;;4972637;28;20459;-72
2021/11/18 16:24:58;;;;;;;7.23;5.30;;;6.40;99.90;;;;;;4971582;28;20510;-73
2021/11/18 16:27:25;;;;;;;15.43;7.00;;;6.30;99.90;;;;;;4972529;28;20479;-73
2021/11/18 16:29:52;;;;;;;12.00;8.20;;;6.30;99.90;;;;;;4973105;28;20925;-73
2021/11/18 16:32:18;;;;;;;20.60;11.27;;;6.20;99.90;;;;;;4972773;28;20471;-72
2021/11/18 16:34:45;;;;;;;14.53;9.00;;;6.10;99.90;;;;;;4972922;28;20428;-73
2021/11/18 16:37:23;;;;;;;12.47;8.23;;;6.00;99.90;;;;;;4973170;28;20855;-73
2021/11/18 16:39:53;;;;;;;9.60;6.97;;;5.90;99.90;;;;;;4973093;28;20416;-71
2021/11/18 16:42:22;;;;;;;13.03;4.90;;;5.90;99.90;;;;;;4971528;28;20444;-73
2021/11/18 16:44:48;;;;;;;7.90;4.10;;;5.80;99.90;;;;;;4971904;28;20434;-74
2021/11/18 16:47:17;;;;;;;7.67;5.20;;;5.80;99.90;;;;;;4971636;28;20400;-73
2021/11/18 16:49:43;;;;;;;9.20;4.90;;;5.80;99.90;;;;;;4973070;28;20427;-74
2021/11/18 16:52:16;;;;;;;6.60;4.80;;;5.90;99.90;;;;;;4972712;28;20490;-71
2021/11/18 16:54:42;;;;;;;8.70;5.60;;;5.90;99.90;;;;;;4972959;28;20218;-73
2021/11/18 16:57:08;;;;;;;9.53;5.73;;;5.80;99.90;;;;;;4972860;28;20390;-73
2021/11/18 16:59:33;;;;;;;8.77;5.67;;;5.80;99.90;;;;;;4973010;28;20535;-73
2021/11/18 17:02:09;;;;;;;8.97;5.70;;;5.80;99.90;;;;;;4972760;28;20446;-73
2021/11/18 17:04:35;;;;;;;10.33;6.27;;;5.80;99.90;;;;;;4972925;28;20179;-73
2021/11/18 17:07:01;;;;;;;16.00;6.70;;;5.90;99.90;;;;;;4972865;28;20422;-73
2021/11/18 17:09:31;;;;;;;9.17;6.40;;;5.90;99.90;;;;;;4972596;28;20265;-73
2021/11/18 17:11:57;;;;;;;12.93;7.30;;;5.90;99.90;;;;;;4971475;28;20505;-73
2021/11/18 17:14:23;;;;;;;13.07;6.30;;;5.90;99.90;;;;;;4972120;28;20411;-73
2021/11/18 17:16:51;;;;;;;9.67;5.60;;;5.90;99.90;;;;;;4972944;28;20415;-73
2021/11/18 17:19:18;;;;;;;11.13;5.33;;;5.90;99.90;;;;;;4972712;28;20254;-73
2021/11/18 17:21:49;;;;;;;9.83;5.00;;;5.90;99.90;;;;;;4972695;28;20498;-73
2021/11/18 17:24:15;;;;;;;14.03;8.50;;;5.90;99.90;;;;;;4972109;28;20457;-73
2021/11/18 17:26:43;;;;;;;16.90;8.47;;;5.80;99.90;;;;;;4972774;28;20853;-73
2021/11/18 17:29:20;;;;;;;13.63;7.73;;;5.70;99.90;;;;;;4972189;28;20471;-73
2021/11/18 17:31:47;;;;;;;11.43;6.90;;;5.70;99.90;;;;;;4971162;28;20527;-73
2021/11/18 17:34:13;;;;;;;11.43;6.80;;;5.70;99.90;;;;;;4972062;28;20409;-73
2021/11/18 17:36:40;;;;;;;10.70;6.10;;;5.60;99.90;;;;;;4972609;28;20811;-73
2021/11/18 17:39:21;;;;;;;8.53;5.60;;;5.50;99.90;;;;;;4972423;28;20183;-73
2021/11/18 17:41:50;;;;;;;9.80;5.20;;;5.40;99.90;;;;;;4972557;28;20445;-73
2021/11/18 17:44:18;;;;;;;9.83;5.27;;;5.40;99.90;;;;;;4972152;28;20849;-73
2021/11/18 17:46:49;;;;;;;10.07;6.20;;;5.40;99.90;;;;;;4972491;28;20797;-73